sensor_id;sensor_type;location;lat;lon;timestamp;P1;durP1;ratioP1;P2;durP2;ratioP2
39968;SDS011;25648;47.808;19.004;2022-08-19T00:00:38;14.48;;;10.15;;
39968;SDS011;25648;47.808;19.004;2022-08-19T00:03:04;12.52;;;9.35;;
39968;SDS011;25648;47.808;19.004;2022-08-19T00:05:31;13.55;;;9.82;;
39968;SDS011;25648;47.808;19.004;2022-08-19T00:07:57;12.05;;;9.63;;
39968;SDS011;25648;47.808;19.004;2022-08-19T00:10:23;13.85;;;9.50;;
39968;SDS011;25648;47.808;19.004;2022-08-19T00:12:49;10.77;;;9.50;;
39968;SDS011;25648;47.808;19.004;2022-08-19T00:15:16;11.63;;;9.80;;
39968;SDS011;25648;47.808;19.004;2022-08-19T00:17:44;14.82;;;9.73;;
39968;SDS011;25648;47.808;19.004;2022-08-19T00:20:11;11.93;;;9.75;;
39968;SDS011;25648;47.808;19.004;2022-08-19T00:22:38;11.25;;;9.27;;
39968;SDS011;25648;47.808;19.004;2022-08-19T00:25:06;12.80;;;10.10;;
39968;SDS011;25648;47.808;19.004;2022-08-19T00:27:32;12.48;;;9.20;;
39968;SDS011;25648;47.808;19.004;2022-08-19T00:29:59;12.63;;;9.50;;
39968;SDS011;25648;47.808;19.004;2022-08-19T00:32:26;12.88;;;9.93;;
39968;SDS011;25648;47.808;19.004;2022-08-19T00:34:52;13.05;;;10.45;;
39968;SDS011;25648;47.808;19.004;2022-08-19T00:37:19;11.27;;;9.65;;
39968;SDS011;25648;47.808;19.004;2022-08-19T00:39:48;14.43;;;9.77;;
39968;SDS011;25648;47.808;19.004;2022-08-19T00:42:15;12.32;;;10.25;;
39968;SDS011;25648;47.808;19.004;2022-08-19T00:44:42;12.52;;;10.20;;
39968;SDS011;25648;47.808;19.004;2022-08-19T00:47:08;11.65;;;10.30;;
39968;SDS011;25648;47.808;19.004;2022-08-19T00:49:35;12.13;;;10.07;;
39968;SDS011;25648;47.808;19.004;2022-08-19T00:52:12;14.15;;;10.90;;
39968;SDS011;25648;47.808;19.004;2022-08-19T00:54:41;11.45;;;10.25;;
39968;SDS011;25648;47.808;19.004;2022-08-19T00:57:09;12.27;;;10.65;;
39968;SDS011;25648;47.808;19.004;2022-08-19T00:59:38;14.75;;;11.10;;
39968;SDS011;25648;47.808;19.004;2022-08-19T01:02:07;12.15;;;10.20;;
39968;SDS011;25648;47.808;19.004;2022-08-19T01:04:32;14.38;;;11.02;;
39968;SDS011;25648;47.808;19.004;2022-08-19T01:06:58;14.77;;;10.43;;
39968;SDS011;25648;47.808;19.004;2022-08-19T01:09:26;13.75;;;9.90;;
39968;SDS011;25648;47.808;19.004;2022-08-19T01:11:52;12.00;;;9.82;;
39968;SDS011;25648;47.808;19.004;2022-08-19T01:14:17;12.30;;;10.45;;
39968;SDS011;25648;47.808;19.004;2022-08-19T01:16:44;14.25;;;11.18;;
39968;SDS011;25648;47.808;19.004;2022-08-19T01:19:28;14.23;;;10.48;;
39968;SDS011;25648;47.808;19.004;2022-08-19T01:22:01;13.18;;;11.15;;
39968;SDS011;25648;47.808;19.004;2022-08-19T01:27:22;14.60;;;10.90;;
39968;SDS011;25648;47.808;19.004;2022-08-19T01:29:48;13.40;;;10.85;;
39968;SDS011;25648;47.808;19.004;2022-08-19T01:32:15;11.93;;;9.70;;
39968;SDS011;25648;47.808;19.004;2022-08-19T01:34:41;11.82;;;10.05;;
39968;SDS011;25648;47.808;19.004;2022-08-19T01:37:09;12.52;;;11.23;;
39968;SDS011;25648;47.808;19.004;2022-08-19T01:39:36;13.63;;;10.55;;
39968;SDS011;25648;47.808;19.004;2022-08-19T01:42:06;14.65;;;10.70;;
39968;SDS011;25648;47.808;19.004;2022-08-19T01:44:34;12.88;;;11.13;;
39968;SDS011;25648;47.808;19.004;2022-08-19T01:47:01;14.75;;;12.02;;
39968;SDS011;25648;47.808;19.004;2022-08-19T01:49:27;12.45;;;10.77;;
39968;SDS011;25648;47.808;19.004;2022-08-19T01:51:53;16.85;;;11.95;;
39968;SDS011;25648;47.808;19.004;2022-08-19T01:54:19;13.43;;;10.80;;
39968;SDS011;25648;47.808;19.004;2022-08-19T01:56:47;13.70;;;11.25;;
39968;SDS011;25648;47.808;19.004;2022-08-19T01:59:16;14.55;;;11.05;;
39968;SDS011;25648;47.808;19.004;2022-08-19T02:01:45;13.85;;;12.02;;
39968;SDS011;25648;47.808;19.004;2022-08-19T02:04:11;13.18;;;11.57;;
39968;SDS011;25648;47.808;19.004;2022-08-19T02:06:37;13.85;;;11.77;;
39968;SDS011;25648;47.808;19.004;2022-08-19T02:09:04;15.25;;;11.13;;
39968;SDS011;25648;47.808;19.004;2022-08-19T02:11:32;14.13;;;11.25;;
39968;SDS011;25648;47.808;19.004;2022-08-19T02:14:00;14.77;;;11.90;;
39968;SDS011;25648;47.808;19.004;2022-08-19T02:16:27;13.32;;;11.48;;
39968;SDS011;25648;47.808;19.004;2022-08-19T02:18:53;16.33;;;12.13;;
39968;SDS011;25648;47.808;19.004;2022-08-19T02:21:20;14.10;;;12.23;;
39968;SDS011;25648;47.808;19.004;2022-08-19T02:23:48;18.40;;;12.82;;
39968;SDS011;25648;47.808;19.004;2022-08-19T02:26:14;16.80;;;12.48;;
39968;SDS011;25648;47.808;19.004;2022-08-19T02:28:41;15.32;;;13.00;;
39968;SDS011;25648;47.808;19.004;2022-08-19T02:31:15;12.85;;;11.25;;
39968;SDS011;25648;47.808;19.004;2022-08-19T02:33:42;14.23;;;12.10;;
39968;SDS011;25648;47.808;19.004;2022-08-19T02:36:11;13.90;;;12.18;;
39968;SDS011;25648;47.808;19.004;2022-08-19T02:38:38;14.25;;;12.75;;
39968;SDS011;25648;47.808;19.004;2022-08-19T02:41:11;15.57;;;12.40;;
39968;SDS011;25648;47.808;19.004;2022-08-19T02:43:39;13.70;;;12.00;;
39968;SDS011;25648;47.808;19.004;2022-08-19T02:46:21;16.25;;;12.13;;
39968;SDS011;25648;47.808;19.004;2022-08-19T02:48:53;14.63;;;12.65;;
39968;SDS011;25648;47.808;19.004;2022-08-19T02:51:24;14.18;;;12.35;;
39968;SDS011;25648;47.808;19.004;2022-08-19T02:53:52;14.52;;;12.63;;
39968;SDS011;25648;47.808;19.004;2022-08-19T02:56:19;17.60;;;12.90;;
39968;SDS011;25648;47.808;19.004;2022-08-19T02:58:45;15.88;;;13.05;;
39968;SDS011;25648;47.808;19.004;2022-08-19T03:01:19;14.95;;;12.18;;
39968;SDS011;25648;47.808;19.004;2022-08-19T03:03:47;16.05;;;12.95;;
39968;SDS011;25648;47.808;19.004;2022-08-19T03:06:14;14.68;;;12.45;;
39968;SDS011;25648;47.808;19.004;2022-08-19T03:08:41;17.13;;;13.10;;
39968;SDS011;25648;47.808;19.004;2022-08-19T03:11:19;16.98;;;12.75;;
39968;SDS011;25648;47.808;19.004;2022-08-19T03:13:53;16.10;;;13.13;;
39968;SDS011;25648;47.808;19.004;2022-08-19T03:16:19;17.52;;;13.25;;
39968;SDS011;25648;47.808;19.004;2022-08-19T03:18:47;15.48;;;13.15;;
39968;SDS011;25648;47.808;19.004;2022-08-19T03:21:17;14.52;;;12.93;;
39968;SDS011;25648;47.808;19.004;2022-08-19T03:23:49;14.50;;;13.02;;
39968;SDS011;25648;47.808;19.004;2022-08-19T03:26:15;17.00;;;13.27;;
39968;SDS011;25648;47.808;19.004;2022-08-19T03:28:42;15.68;;;13.35;;
39968;SDS011;25648;47.808;19.004;2022-08-19T03:31:15;15.52;;;13.32;;
39968;SDS011;25648;47.808;19.004;2022-08-19T03:33:42;14.95;;;12.70;;
39968;SDS011;25648;47.808;19.004;2022-08-19T03:36:10;17.42;;;12.98;;
39968;SDS011;25648;47.808;19.004;2022-08-19T03:38:46;17.80;;;13.88;;
39968;SDS011;25648;47.808;19.004;2022-08-19T03:41:24;17.23;;;13.40;;
39968;SDS011;25648;47.808;19.004;2022-08-19T03:43:56;17.60;;;13.43;;
39968;SDS011;25648;47.808;19.004;2022-08-19T03:46:24;15.20;;;13.60;;
39968;SDS011;25648;47.808;19.004;2022-08-19T03:48:52;17.15;;;13.63;;
39968;SDS011;25648;47.808;19.004;2022-08-19T03:51:20;16.05;;;13.38;;
39968;SDS011;25648;47.808;19.004;2022-08-19T03:53:50;18.33;;;15.13;;
39968;SDS011;25648;47.808;19.004;2022-08-19T03:56:17;16.73;;;13.65;;
39968;SDS011;25648;47.808;19.004;2022-08-19T03:58:43;20.02;;;14.02;;
39968;SDS011;25648;47.808;19.004;2022-08-19T04:01:10;59.03;;;53.60;;
39968;SDS011;25648;47.808;19.004;2022-08-19T04:03:38;15.20;;;12.90;;
39968;SDS011;25648;47.808;19.004;2022-08-19T04:06:22;18.50;;;13.52;;
39968;SDS011;25648;47.808;19.004;2022-08-19T04:08:50;17.50;;;14.10;;
39968;SDS011;25648;47.808;19.004;2022-08-19T04:11:19;15.65;;;12.88;;
39968;SDS011;25648;47.808;19.004;2022-08-19T04:13:47;17.45;;;13.73;;
39968;SDS011;25648;47.808;19.004;2022-08-19T04:16:14;14.43;;;12.88;;
39968;SDS011;25648;47.808;19.004;2022-08-19T04:18:39;16.75;;;13.73;;
39968;SDS011;25648;47.808;19.004;2022-08-19T04:21:06;17.15;;;13.02;;
39968;SDS011;25648;47.808;19.004;2022-08-19T04:23:33;15.23;;;12.85;;
39968;SDS011;25648;47.808;19.004;2022-08-19T04:26:01;14.48;;;13.00;;
39968;SDS011;25648;47.808;19.004;2022-08-19T04:28:27;15.32;;;13.48;;
39968;SDS011;25648;47.808;19.004;2022-08-19T04:30:54;15.68;;;13.93;;
39968;SDS011;25648;47.808;19.004;2022-08-19T04:33:22;19.63;;;13.57;;
39968;SDS011;25648;47.808;19.004;2022-08-19T04:35:49;13.98;;;12.48;;
39968;SDS011;25648;47.808;19.004;2022-08-19T04:38:18;14.80;;;12.43;;
39968;SDS011;25648;47.808;19.004;2022-08-19T04:40:48;16.60;;;13.07;;
39968;SDS011;25648;47.808;19.004;2022-08-19T04:43:35;14.35;;;12.85;;
39968;SDS011;25648;47.808;19.004;2022-08-19T04:46:06;13.63;;;12.23;;
39968;SDS011;25648;47.808;19.004;2022-08-19T04:48:33;16.00;;;11.30;;
39968;SDS011;25648;47.808;19.004;2022-08-19T04:50:59;16.92;;;11.20;;
39968;SDS011;25648;47.808;19.004;2022-08-19T04:53:29;13.88;;;11.48;;
39968;SDS011;25648;47.808;19.004;2022-08-19T04:55:57;16.67;;;11.48;;
39968;SDS011;25648;47.808;19.004;2022-08-19T04:58:25;17.15;;;12.95;;
39968;SDS011;25648;47.808;19.004;2022-08-19T05:00:52;15.25;;;13.63;;
39968;SDS011;25648;47.808;19.004;2022-08-19T05:03:19;17.67;;;13.73;;
39968;SDS011;25648;47.808;19.004;2022-08-19T05:05:45;16.83;;;12.68;;
39968;SDS011;25648;47.808;19.004;2022-08-19T05:08:16;15.13;;;12.40;;
39968;SDS011;25648;47.808;19.004;2022-08-19T05:10:47;14.80;;;11.75;;
39968;SDS011;25648;47.808;19.004;2022-08-19T05:13:16;14.82;;;11.43;;
39968;SDS011;25648;47.808;19.004;2022-08-19T05:15:44;14.30;;;11.85;;
39968;SDS011;25648;47.808;19.004;2022-08-19T05:18:21;13.45;;;11.73;;
39968;SDS011;25648;47.808;19.004;2022-08-19T05:21:06;12.88;;;10.80;;
39968;SDS011;25648;47.808;19.004;2022-08-19T05:23:54;14.67;;;10.40;;
39968;SDS011;25648;47.808;19.004;2022-08-19T05:26:20;15.43;;;10.82;;
39968;SDS011;25648;47.808;19.004;2022-08-19T05:28:46;12.98;;;11.52;;
39968;SDS011;25648;47.808;19.004;2022-08-19T05:31:11;17.10;;;11.05;;
39968;SDS011;25648;47.808;19.004;2022-08-19T05:33:37;12.75;;;11.40;;
39968;SDS011;25648;47.808;19.004;2022-08-19T05:36:04;14.63;;;10.68;;
39968;SDS011;25648;47.808;19.004;2022-08-19T05:38:32;15.82;;;11.40;;
39968;SDS011;25648;47.808;19.004;2022-08-19T05:40:59;14.15;;;10.50;;
39968;SDS011;25648;47.808;19.004;2022-08-19T05:43:24;13.98;;;11.70;;
39968;SDS011;25648;47.808;19.004;2022-08-19T05:45:50;15.55;;;10.52;;
39968;SDS011;25648;47.808;19.004;2022-08-19T05:48:16;12.38;;;10.90;;
39968;SDS011;25648;47.808;19.004;2022-08-19T05:50:45;12.35;;;10.50;;
39968;SDS011;25648;47.808;19.004;2022-08-19T05:53:11;12.95;;;9.38;;
39968;SDS011;25648;47.808;19.004;2022-08-19T05:55:41;10.77;;;8.80;;
39968;SDS011;25648;47.808;19.004;2022-08-19T05:58:07;11.68;;;9.30;;
39968;SDS011;25648;47.808;19.004;2022-08-19T06:00:33;11.23;;;9.07;;
39968;SDS011;25648;47.808;19.004;2022-08-19T06:03:00;10.35;;;9.10;;
39968;SDS011;25648;47.808;19.004;2022-08-19T06:05:29;10.23;;;9.05;;
39968;SDS011;25648;47.808;19.004;2022-08-19T06:07:55;12.57;;;8.73;;
39968;SDS011;25648;47.808;19.004;2022-08-19T06:10:21;11.82;;;9.27;;
39968;SDS011;25648;47.808;19.004;2022-08-19T06:12:47;13.77;;;8.88;;
39968;SDS011;25648;47.808;19.004;2022-08-19T06:15:14;12.27;;;9.02;;
39968;SDS011;25648;47.808;19.004;2022-08-19T06:17:40;13.40;;;8.10;;
39968;SDS011;25648;47.808;19.004;2022-08-19T06:20:07;12.60;;;8.13;;
39968;SDS011;25648;47.808;19.004;2022-08-19T06:22:39;11.95;;;8.85;;
39968;SDS011;25648;47.808;19.004;2022-08-19T06:25:10;11.70;;;8.35;;
39968;SDS011;25648;47.808;19.004;2022-08-19T06:27:38;9.88;;;8.10;;
39968;SDS011;25648;47.808;19.004;2022-08-19T06:30:05;16.77;;;8.38;;
39968;SDS011;25648;47.808;19.004;2022-08-19T06:32:31;10.60;;;8.00;;
39968;SDS011;25648;47.808;19.004;2022-08-19T06:34:57;9.93;;;8.18;;
39968;SDS011;25648;47.808;19.004;2022-08-19T06:37:23;13.25;;;8.23;;
39968;SDS011;25648;47.808;19.004;2022-08-19T06:39:48;9.73;;;7.95;;
39968;SDS011;25648;47.808;19.004;2022-08-19T06:42:15;14.52;;;8.15;;
39968;SDS011;25648;47.808;19.004;2022-08-19T06:44:44;11.13;;;7.90;;
39968;SDS011;25648;47.808;19.004;2022-08-19T06:47:13;15.77;;;8.32;;
39968;SDS011;25648;47.808;19.004;2022-08-19T06:49:45;9.15;;;7.50;;
39968;SDS011;25648;47.808;19.004;2022-08-19T06:52:11;9.75;;;7.07;;
39968;SDS011;25648;47.808;19.004;2022-08-19T06:54:37;23.63;;;8.00;;
39968;SDS011;25648;47.808;19.004;2022-08-19T06:57:04;10.25;;;6.80;;
39968;SDS011;25648;47.808;19.004;2022-08-19T06:59:31;9.57;;;6.68;;
39968;SDS011;25648;47.808;19.004;2022-08-19T07:01:58;11.57;;;7.25;;
39968;SDS011;25648;47.808;19.004;2022-08-19T07:04:28;11.52;;;7.50;;
39968;SDS011;25648;47.808;19.004;2022-08-19T07:06:57;10.43;;;7.32;;
39968;SDS011;25648;47.808;19.004;2022-08-19T07:09:25;9.07;;;6.68;;
39968;SDS011;25648;47.808;19.004;2022-08-19T07:11:52;17.80;;;7.80;;
39968;SDS011;25648;47.808;19.004;2022-08-19T07:14:20;10.52;;;6.93;;
39968;SDS011;25648;47.808;19.004;2022-08-19T07:16:52;8.85;;;6.90;;
39968;SDS011;25648;47.808;19.004;2022-08-19T07:19:20;9.82;;;6.88;;
39968;SDS011;25648;47.808;19.004;2022-08-19T07:21:48;9.40;;;7.10;;
39968;SDS011;25648;47.808;19.004;2022-08-19T07:24:18;9.70;;;6.90;;
39968;SDS011;25648;47.808;19.004;2022-08-19T07:26:52;9.35;;;7.22;;
39968;SDS011;25648;47.808;19.004;2022-08-19T07:29:20;9.23;;;6.93;;
39968;SDS011;25648;47.808;19.004;2022-08-19T07:31:48;10.93;;;6.20;;
39968;SDS011;25648;47.808;19.004;2022-08-19T07:34:15;10.95;;;6.38;;
39968;SDS011;25648;47.808;19.004;2022-08-19T07:36:42;9.95;;;6.68;;
39968;SDS011;25648;47.808;19.004;2022-08-19T07:39:16;10.32;;;6.97;;
39968;SDS011;25648;47.808;19.004;2022-08-19T07:41:44;9.57;;;6.40;;
39968;SDS011;25648;47.808;19.004;2022-08-19T07:44:11;17.77;;;7.05;;
39968;SDS011;25648;47.808;19.004;2022-08-19T07:46:39;11.07;;;6.70;;
39968;SDS011;25648;47.808;19.004;2022-08-19T07:49:09;8.82;;;6.20;;
39968;SDS011;25648;47.808;19.004;2022-08-19T07:54:05;8.15;;;6.68;;
39968;SDS011;25648;47.808;19.004;2022-08-19T07:56:30;11.88;;;6.55;;
39968;SDS011;25648;47.808;19.004;2022-08-19T07:58:56;9.38;;;6.60;;
39968;SDS011;25648;47.808;19.004;2022-08-19T08:01:23;12.30;;;6.45;;
39968;SDS011;25648;47.808;19.004;2022-08-19T08:03:51;7.65;;;5.97;;
39968;SDS011;25648;47.808;19.004;2022-08-19T08:06:38;10.20;;;6.27;;
39968;SDS011;25648;47.808;19.004;2022-08-19T08:09:28;10.93;;;6.40;;
39968;SDS011;25648;47.808;19.004;2022-08-19T08:11:58;9.70;;;6.47;;
39968;SDS011;25648;47.808;19.004;2022-08-19T08:14:30;11.35;;;6.13;;
39968;SDS011;25648;47.808;19.004;2022-08-19T08:17:01;7.03;;;5.55;;
39968;SDS011;25648;47.808;19.004;2022-08-19T08:19:29;11.82;;;6.05;;
39968;SDS011;25648;47.808;19.004;2022-08-19T08:21:56;9.05;;;5.95;;
39968;SDS011;25648;47.808;19.004;2022-08-19T08:24:23;7.70;;;5.90;;
39968;SDS011;25648;47.808;19.004;2022-08-19T08:26:54;9.20;;;6.13;;
39968;SDS011;25648;47.808;19.004;2022-08-19T08:29:20;109.57;;;13.07;;
39968;SDS011;25648;47.808;19.004;2022-08-19T08:31:45;13.13;;;6.45;;
39968;SDS011;25648;47.808;19.004;2022-08-19T08:34:12;12.10;;;6.50;;
39968;SDS011;25648;47.808;19.004;2022-08-19T08:36:40;10.55;;;5.85;;
39968;SDS011;25648;47.808;19.004;2022-08-19T08:39:10;10.60;;;6.10;;
39968;SDS011;25648;47.808;19.004;2022-08-19T08:41:50;7.05;;;5.65;;
39968;SDS011;25648;47.808;19.004;2022-08-19T08:44:27;11.85;;;5.95;;
39968;SDS011;25648;47.808;19.004;2022-08-19T08:47:09;8.43;;;5.85;;
39968;SDS011;25648;47.808;19.004;2022-08-19T08:49:50;9.45;;;5.65;;
39968;SDS011;25648;47.808;19.004;2022-08-19T08:52:23;10.93;;;5.30;;
39968;SDS011;25648;47.808;19.004;2022-08-19T09:00:21;7.35;;;4.90;;
39968;SDS011;25648;47.808;19.004;2022-08-19T09:03:02;8.43;;;5.38;;
39968;SDS011;25648;47.808;19.004;2022-08-19T09:10:46;6.38;;;4.68;;
39968;SDS011;25648;47.808;19.004;2022-08-19T09:15:45;7.82;;;4.53;;
39968;SDS011;25648;47.808;19.004;2022-08-19T09:18:14;8.10;;;4.78;;
39968;SDS011;25648;47.808;19.004;2022-08-19T09:20:41;6.72;;;4.35;;
39968;SDS011;25648;47.808;19.004;2022-08-19T09:23:07;10.23;;;4.95;;
39968;SDS011;25648;47.808;19.004;2022-08-19T09:25:35;25.45;;;5.63;;
39968;SDS011;25648;47.808;19.004;2022-08-19T09:28:02;11.27;;;4.47;;
39968;SDS011;25648;47.808;19.004;2022-08-19T09:30:30;10.30;;;4.68;;
39968;SDS011;25648;47.808;19.004;2022-08-19T09:33:00;7.05;;;4.68;;
39968;SDS011;25648;47.808;19.004;2022-08-19T09:35:27;7.28;;;4.28;;
39968;SDS011;25648;47.808;19.004;2022-08-19T09:37:54;6.35;;;4.50;;
39968;SDS011;25648;47.808;19.004;2022-08-19T09:40:22;9.98;;;4.90;;
39968;SDS011;25648;47.808;19.004;2022-08-19T09:42:48;8.80;;;4.63;;
39968;SDS011;25648;47.808;19.004;2022-08-19T09:45:14;6.05;;;4.50;;
39968;SDS011;25648;47.808;19.004;2022-08-19T09:47:46;6.63;;;4.38;;
39968;SDS011;25648;47.808;19.004;2022-08-19T09:50:13;8.25;;;4.50;;
39968;SDS011;25648;47.808;19.004;2022-08-19T09:52:38;9.23;;;5.00;;
39968;SDS011;25648;47.808;19.004;2022-08-19T09:55:05;8.85;;;4.78;;
39968;SDS011;25648;47.808;19.004;2022-08-19T09:57:33;7.55;;;4.60;;
39968;SDS011;25648;47.808;19.004;2022-08-19T09:59:58;8.10;;;5.00;;
39968;SDS011;25648;47.808;19.004;2022-08-19T10:02:25;10.73;;;4.55;;
39968;SDS011;25648;47.808;19.004;2022-08-19T10:04:51;8.43;;;4.65;;
39968;SDS011;25648;47.808;19.004;2022-08-19T10:07:35;8.63;;;5.18;;
39968;SDS011;25648;47.808;19.004;2022-08-19T10:10:03;10.00;;;5.30;;
39968;SDS011;25648;47.808;19.004;2022-08-19T10:12:31;8.57;;;5.05;;
39968;SDS011;25648;47.808;19.004;2022-08-19T10:14:58;8.00;;;5.03;;
39968;SDS011;25648;47.808;19.004;2022-08-19T10:17:24;6.40;;;5.10;;
39968;SDS011;25648;47.808;19.004;2022-08-19T10:19:50;22.98;;;5.47;;
39968;SDS011;25648;47.808;19.004;2022-08-19T10:22:17;9.75;;;4.93;;
39968;SDS011;25648;47.808;19.004;2022-08-19T10:24:43;11.15;;;4.82;;
39968;SDS011;25648;47.808;19.004;2022-08-19T10:27:08;10.05;;;4.78;;
39968;SDS011;25648;47.808;19.004;2022-08-19T10:29:34;6.43;;;4.90;;
39968;SDS011;25648;47.808;19.004;2022-08-19T10:32:01;9.48;;;4.93;;
39968;SDS011;25648;47.808;19.004;2022-08-19T10:34:31;7.85;;;5.45;;
39968;SDS011;25648;47.808;19.004;2022-08-19T10:36:57;9.20;;;5.25;;
39968;SDS011;25648;47.808;19.004;2022-08-19T10:39:24;7.45;;;5.47;;
39968;SDS011;25648;47.808;19.004;2022-08-19T10:41:50;9.32;;;5.25;;
39968;SDS011;25648;47.808;19.004;2022-08-19T10:44:15;10.63;;;4.72;;
39968;SDS011;25648;47.808;19.004;2022-08-19T10:46:43;7.68;;;5.20;;
39968;SDS011;25648;47.808;19.004;2022-08-19T10:49:12;8.43;;;5.70;;
39968;SDS011;25648;47.808;19.004;2022-08-19T10:51:38;6.72;;;4.65;;
39968;SDS011;25648;47.808;19.004;2022-08-19T10:54:23;9.07;;;4.90;;
39968;SDS011;25648;47.808;19.004;2022-08-19T10:57:09;7.90;;;4.68;;
39968;SDS011;25648;47.808;19.004;2022-08-19T10:59:35;14.20;;;5.82;;
39968;SDS011;25648;47.808;19.004;2022-08-19T11:02:01;7.05;;;4.93;;
39968;SDS011;25648;47.808;19.004;2022-08-19T11:04:29;7.30;;;5.10;;
39968;SDS011;25648;47.808;19.004;2022-08-19T11:06:56;7.63;;;5.00;;
39968;SDS011;25648;47.808;19.004;2022-08-19T11:09:23;6.00;;;4.75;;
39968;SDS011;25648;47.808;19.004;2022-08-19T11:11:50;7.55;;;4.85;;
39968;SDS011;25648;47.808;19.004;2022-08-19T11:14:18;8.32;;;5.20;;
39968;SDS011;25648;47.808;19.004;2022-08-19T11:16:45;7.47;;;4.85;;
39968;SDS011;25648;47.808;19.004;2022-08-19T11:19:15;8.25;;;4.90;;
39968;SDS011;25648;47.808;19.004;2022-08-19T11:21:44;9.05;;;4.80;;
39968;SDS011;25648;47.808;19.004;2022-08-19T11:24:22;10.15;;;5.28;;
39968;SDS011;25648;47.808;19.004;2022-08-19T11:26:50;6.88;;;4.78;;
39968;SDS011;25648;47.808;19.004;2022-08-19T11:29:19;8.48;;;4.80;;
39968;SDS011;25648;47.808;19.004;2022-08-19T11:31:47;7.55;;;5.07;;
39968;SDS011;25648;47.808;19.004;2022-08-19T11:34:15;6.63;;;4.63;;
39968;SDS011;25648;47.808;19.004;2022-08-19T11:36:44;6.65;;;4.78;;
39968;SDS011;25648;47.808;19.004;2022-08-19T11:39:13;8.10;;;5.07;;
39968;SDS011;25648;47.808;19.004;2022-08-19T11:41:40;6.53;;;4.70;;
39968;SDS011;25648;47.808;19.004;2022-08-19T11:44:06;7.72;;;4.70;;
39968;SDS011;25648;47.808;19.004;2022-08-19T11:46:33;7.38;;;4.60;;
39968;SDS011;25648;47.808;19.004;2022-08-19T11:49:00;11.13;;;5.10;;
39968;SDS011;25648;47.808;19.004;2022-08-19T11:51:26;9.07;;;4.95;;
39968;SDS011;25648;47.808;19.004;2022-08-19T11:53:53;7.25;;;4.78;;
39968;SDS011;25648;47.808;19.004;2022-08-19T11:56:20;7.40;;;4.80;;
39968;SDS011;25648;47.808;19.004;2022-08-19T11:58:47;7.97;;;4.68;;
39968;SDS011;25648;47.808;19.004;2022-08-19T12:01:14;9.70;;;4.88;;
39968;SDS011;25648;47.808;19.004;2022-08-19T12:03:42;6.78;;;4.88;;
39968;SDS011;25648;47.808;19.004;2022-08-19T12:06:09;14.18;;;4.93;;
39968;SDS011;25648;47.808;19.004;2022-08-19T12:08:40;9.93;;;4.95;;
39968;SDS011;25648;47.808;19.004;2022-08-19T12:11:08;10.45;;;4.50;;
39968;SDS011;25648;47.808;19.004;2022-08-19T12:13:34;8.23;;;4.68;;
39968;SDS011;25648;47.808;19.004;2022-08-19T12:16:00;10.18;;;4.60;;
39968;SDS011;25648;47.808;19.004;2022-08-19T12:18:38;9.45;;;4.90;;
39968;SDS011;25648;47.808;19.004;2022-08-19T12:21:06;6.85;;;4.65;;
39968;SDS011;25648;47.808;19.004;2022-08-19T12:23:32;9.43;;;4.40;;
39968;SDS011;25648;47.808;19.004;2022-08-19T12:25:57;11.63;;;5.13;;
39968;SDS011;25648;47.808;19.004;2022-08-19T12:28:24;8.95;;;4.78;;
39968;SDS011;25648;47.808;19.004;2022-08-19T12:30:50;16.27;;;5.60;;
39968;SDS011;25648;47.808;19.004;2022-08-19T12:33:16;9.73;;;4.80;;
39968;SDS011;25648;47.808;19.004;2022-08-19T12:35:44;7.97;;;4.70;;
39968;SDS011;25648;47.808;19.004;2022-08-19T12:38:11;9.13;;;4.60;;
39968;SDS011;25648;47.808;19.004;2022-08-19T12:40:38;8.05;;;4.78;;
39968;SDS011;25648;47.808;19.004;2022-08-19T12:43:07;9.88;;;4.53;;
39968;SDS011;25648;47.808;19.004;2022-08-19T12:45:33;6.47;;;4.88;;
39968;SDS011;25648;47.808;19.004;2022-08-19T12:48:00;9.98;;;4.55;;
39968;SDS011;25648;47.808;19.004;2022-08-19T12:50:25;7.65;;;4.45;;
39968;SDS011;25648;47.808;19.004;2022-08-19T12:52:51;9.32;;;4.88;;
39968;SDS011;25648;47.808;19.004;2022-08-19T12:55:17;9.77;;;4.72;;
39968;SDS011;25648;47.808;19.004;2022-08-19T12:57:43;8.85;;;4.85;;
39968;SDS011;25648;47.808;19.004;2022-08-19T13:00:11;10.05;;;4.97;;
39968;SDS011;25648;47.808;19.004;2022-08-19T13:02:40;7.57;;;5.18;;
39968;SDS011;25648;47.808;19.004;2022-08-19T13:05:10;13.80;;;5.78;;
39968;SDS011;25648;47.808;19.004;2022-08-19T13:07:38;10.70;;;5.50;;
39968;SDS011;25648;47.808;19.004;2022-08-19T13:10:05;12.65;;;4.90;;
39968;SDS011;25648;47.808;19.004;2022-08-19T13:12:33;9.90;;;5.70;;
39968;SDS011;25648;47.808;19.004;2022-08-19T13:14:58;8.07;;;4.90;;
39968;SDS011;25648;47.808;19.004;2022-08-19T13:17:24;8.68;;;5.05;;
39968;SDS011;25648;47.808;19.004;2022-08-19T13:19:50;10.40;;;4.90;;
39968;SDS011;25648;47.808;19.004;2022-08-19T13:22:16;15.60;;;5.63;;
39968;SDS011;25648;47.808;19.004;2022-08-19T13:24:42;7.82;;;4.72;;
39968;SDS011;25648;47.808;19.004;2022-08-19T13:27:08;8.00;;;4.78;;
39968;SDS011;25648;47.808;19.004;2022-08-19T13:29:33;7.07;;;5.03;;
39968;SDS011;25648;47.808;19.004;2022-08-19T13:32:18;9.25;;;5.35;;
39968;SDS011;25648;47.808;19.004;2022-08-19T13:35:03;12.10;;;5.13;;
39968;SDS011;25648;47.808;19.004;2022-08-19T13:37:29;8.32;;;5.15;;
39968;SDS011;25648;47.808;19.004;2022-08-19T13:40:14;9.60;;;6.00;;
39968;SDS011;25648;47.808;19.004;2022-08-19T13:42:43;13.43;;;5.85;;
39968;SDS011;25648;47.808;19.004;2022-08-19T13:45:11;10.95;;;5.97;;
39968;SDS011;25648;47.808;19.004;2022-08-19T13:47:39;10.60;;;5.60;;
39968;SDS011;25648;47.808;19.004;2022-08-19T13:50:13;8.82;;;5.28;;
39968;SDS011;25648;47.808;19.004;2022-08-19T13:52:41;9.18;;;5.75;;
39968;SDS011;25648;47.808;19.004;2022-08-19T13:55:08;7.68;;;5.18;;
39968;SDS011;25648;47.808;19.004;2022-08-19T13:57:36;9.40;;;5.88;;
39968;SDS011;25648;47.808;19.004;2022-08-19T14:00:06;22.90;;;5.65;;
39968;SDS011;25648;47.808;19.004;2022-08-19T14:02:35;29.38;;;5.47;;
39968;SDS011;25648;47.808;19.004;2022-08-19T14:05:08;25.17;;;5.18;;
39968;SDS011;25648;47.808;19.004;2022-08-19T14:07:36;23.83;;;4.80;;
39968;SDS011;25648;47.808;19.004;2022-08-19T14:10:07;17.10;;;4.35;;
39968;SDS011;25648;47.808;19.004;2022-08-19T14:12:34;12.38;;;4.43;;
39968;SDS011;25648;47.808;19.004;2022-08-19T14:15:00;15.77;;;4.22;;
39968;SDS011;25648;47.808;19.004;2022-08-19T14:17:28;21.33;;;4.55;;
39968;SDS011;25648;47.808;19.004;2022-08-19T14:20:01;13.85;;;4.13;;
39968;SDS011;25648;47.808;19.004;2022-08-19T14:22:33;22.90;;;5.18;;
39968;SDS011;25648;47.808;19.004;2022-08-19T14:24:59;44.70;;;6.10;;
39968;SDS011;25648;47.808;19.004;2022-08-19T14:27:25;44.15;;;5.60;;
39968;SDS011;25648;47.808;19.004;2022-08-19T14:29:51;14.65;;;4.22;;
39968;SDS011;25648;47.808;19.004;2022-08-19T14:32:20;29.20;;;4.95;;
39968;SDS011;25648;47.808;19.004;2022-08-19T14:34:46;25.77;;;4.82;;
39968;SDS011;25648;47.808;19.004;2022-08-19T14:37:12;12.50;;;3.78;;
39968;SDS011;25648;47.808;19.004;2022-08-19T14:39:39;7.90;;;3.67;;
39968;SDS011;25648;47.808;19.004;2022-08-19T14:42:07;9.73;;;3.60;;
39968;SDS011;25648;47.808;19.004;2022-08-19T14:44:34;12.45;;;3.85;;
39968;SDS011;25648;47.808;19.004;2022-08-19T14:46:59;18.23;;;3.90;;